sensor_id;sensor_type;location;lat;lon;timestamp;P1;durP1;ratioP1;P2;durP2;ratioP2
60726;SDS011;46577;49.004;12.120;2022-08-19T00:01:41;24.80;;;20.30;;
60726;SDS011;46577;49.004;12.120;2022-08-19T00:04:10;27.93;;;21.83;;
60726;SDS011;46577;49.004;12.120;2022-08-19T00:06:38;23.60;;;20.43;;
60726;SDS011;46577;49.004;12.120;2022-08-19T00:09:06;26.20;;;21.77;;
60726;SDS011;46577;49.004;12.120;2022-08-19T00:11:34;28.10;;;20.90;;
60726;SDS011;46577;49.004;12.120;2022-08-19T00:14:02;24.47;;;21.73;;
60726;SDS011;46577;49.004;12.120;2022-08-19T00:16:28;26.10;;;22.63;;
60726;SDS011;46577;49.004;12.120;2022-08-19T00:18:54;27.30;;;22.70;;
60726;SDS011;46577;49.004;12.120;2022-08-19T00:21:23;26.97;;;21.10;;
60726;SDS011;46577;49.004;12.120;2022-08-19T00:23:51;31.97;;;21.80;;
60726;SDS011;46577;49.004;12.120;2022-08-19T00:26:18;22.20;;;19.80;;
60726;SDS011;46577;49.004;12.120;2022-08-19T00:28:43;24.10;;;20.87;;
60726;SDS011;46577;49.004;12.120;2022-08-19T00:31:09;22.97;;;20.57;;
60726;SDS011;46577;49.004;12.120;2022-08-19T00:33:35;21.93;;;19.73;;
60726;SDS011;46577;49.004;12.120;2022-08-19T00:36:02;22.80;;;19.87;;
60726;SDS011;46577;49.004;12.120;2022-08-19T00:38:31;24.97;;;19.97;;
60726;SDS011;46577;49.004;12.120;2022-08-19T00:40:58;23.03;;;20.67;;
60726;SDS011;46577;49.004;12.120;2022-08-19T00:43:24;23.03;;;20.73;;
60726;SDS011;46577;49.004;12.120;2022-08-19T00:45:51;23.90;;;21.20;;
60726;SDS011;46577;49.004;12.120;2022-08-19T00:48:18;25.93;;;21.20;;
60726;SDS011;46577;49.004;12.120;2022-08-19T00:50:45;22.93;;;20.63;;
60726;SDS011;46577;49.004;12.120;2022-08-19T00:53:14;23.97;;;21.47;;
60726;SDS011;46577;49.004;12.120;2022-08-19T00:55:47;26.23;;;22.00;;
60726;SDS011;46577;49.004;12.120;2022-08-19T00:58:16;30.93;;;21.00;;
60726;SDS011;46577;49.004;12.120;2022-08-19T01:00:45;25.83;;;20.50;;
60726;SDS011;46577;49.004;12.120;2022-08-19T01:03:12;26.40;;;21.97;;
60726;SDS011;46577;49.004;12.120;2022-08-19T01:05:41;27.80;;;22.93;;
60726;SDS011;46577;49.004;12.120;2022-08-19T01:08:08;22.13;;;19.90;;
60726;SDS011;46577;49.004;12.120;2022-08-19T01:10:37;26.97;;;21.77;;
60726;SDS011;46577;49.004;12.120;2022-08-19T01:13:06;23.63;;;21.23;;
60726;SDS011;46577;49.004;12.120;2022-08-19T01:15:44;24.13;;;21.10;;
60726;SDS011;46577;49.004;12.120;2022-08-19T01:18:17;24.80;;;22.10;;
60726;SDS011;46577;49.004;12.120;2022-08-19T01:20:45;24.30;;;21.60;;
60726;SDS011;46577;49.004;12.120;2022-08-19T01:23:12;28.70;;;22.33;;
60726;SDS011;46577;49.004;12.120;2022-08-19T01:25:43;26.30;;;23.00;;
60726;SDS011;46577;49.004;12.120;2022-08-19T01:28:14;26.90;;;22.80;;
60726;SDS011;46577;49.004;12.120;2022-08-19T01:30:43;27.07;;;21.50;;
60726;SDS011;46577;49.004;12.120;2022-08-19T01:33:09;28.73;;;25.43;;
60726;SDS011;46577;49.004;12.120;2022-08-19T01:35:35;26.33;;;23.50;;
60726;SDS011;46577;49.004;12.120;2022-08-19T01:38:03;25.93;;;23.13;;
60726;SDS011;46577;49.004;12.120;2022-08-19T01:40:32;31.30;;;24.50;;
60726;SDS011;46577;49.004;12.120;2022-08-19T01:43:02;28.10;;;23.20;;
60726;SDS011;46577;49.004;12.120;2022-08-19T01:45:28;26.27;;;23.07;;
60726;SDS011;46577;49.004;12.120;2022-08-19T01:47:56;28.77;;;23.07;;
60726;SDS011;46577;49.004;12.120;2022-08-19T01:50:23;28.57;;;23.33;;
60726;SDS011;46577;49.004;12.120;2022-08-19T01:52:48;27.80;;;22.87;;
60726;SDS011;46577;49.004;12.120;2022-08-19T01:55:17;25.83;;;22.30;;
60726;SDS011;46577;49.004;12.120;2022-08-19T01:57:46;34.80;;;22.70;;
60726;SDS011;46577;49.004;12.120;2022-08-19T02:00:21;26.07;;;23.27;;
60726;SDS011;46577;49.004;12.120;2022-08-19T02:02:49;29.40;;;24.47;;
60726;SDS011;46577;49.004;12.120;2022-08-19T02:05:14;31.40;;;24.10;;
60726;SDS011;46577;49.004;12.120;2022-08-19T02:07:41;32.53;;;26.00;;
60726;SDS011;46577;49.004;12.120;2022-08-19T02:10:08;29.47;;;23.60;;
60726;SDS011;46577;49.004;12.120;2022-08-19T02:12:36;29.87;;;25.33;;
60726;SDS011;46577;49.004;12.120;2022-08-19T02:15:03;27.10;;;24.27;;
60726;SDS011;46577;49.004;12.120;2022-08-19T02:17:29;28.40;;;25.10;;
60726;SDS011;46577;49.004;12.120;2022-08-19T02:19:55;33.47;;;25.80;;
60726;SDS011;46577;49.004;12.120;2022-08-19T02:22:21;29.80;;;25.20;;
60726;SDS011;46577;49.004;12.120;2022-08-19T02:24:47;29.53;;;26.50;;
60726;SDS011;46577;49.004;12.120;2022-08-19T02:27:14;29.13;;;23.93;;
60726;SDS011;46577;49.004;12.120;2022-08-19T02:29:40;31.97;;;28.07;;
60726;SDS011;46577;49.004;12.120;2022-08-19T02:32:06;31.43;;;25.70;;
60726;SDS011;46577;49.004;12.120;2022-08-19T02:34:32;29.37;;;26.10;;
60726;SDS011;46577;49.004;12.120;2022-08-19T02:36:58;28.67;;;25.57;;
60726;SDS011;46577;49.004;12.120;2022-08-19T02:39:23;31.70;;;25.37;;
60726;SDS011;46577;49.004;12.120;2022-08-19T02:41:49;30.00;;;26.30;;
60726;SDS011;46577;49.004;12.120;2022-08-19T02:44:16;27.93;;;23.87;;
60726;SDS011;46577;49.004;12.120;2022-08-19T02:46:44;30.60;;;27.00;;
60726;SDS011;46577;49.004;12.120;2022-08-19T02:49:11;29.87;;;26.03;;
60726;SDS011;46577;49.004;12.120;2022-08-19T02:51:38;28.13;;;24.00;;
60726;SDS011;46577;49.004;12.120;2022-08-19T02:54:06;27.40;;;24.43;;
60726;SDS011;46577;49.004;12.120;2022-08-19T02:56:36;31.33;;;25.60;;
60726;SDS011;46577;49.004;12.120;2022-08-19T02:59:03;27.80;;;24.80;;
60726;SDS011;46577;49.004;12.120;2022-08-19T03:01:33;28.67;;;23.90;;
60726;SDS011;46577;49.004;12.120;2022-08-19T03:04:00;26.93;;;24.20;;
60726;SDS011;46577;49.004;12.120;2022-08-19T03:06:29;25.90;;;23.10;;
60726;SDS011;46577;49.004;12.120;2022-08-19T03:08:55;30.83;;;24.60;;
60726;SDS011;46577;49.004;12.120;2022-08-19T03:11:23;26.17;;;23.33;;
60726;SDS011;46577;49.004;12.120;2022-08-19T03:13:51;29.07;;;24.33;;
60726;SDS011;46577;49.004;12.120;2022-08-19T03:16:19;30.80;;;23.73;;
60726;SDS011;46577;49.004;12.120;2022-08-19T03:18:50;30.20;;;24.53;;
60726;SDS011;46577;49.004;12.120;2022-08-19T03:21:17;27.60;;;24.60;;
60726;SDS011;46577;49.004;12.120;2022-08-19T03:23:48;27.40;;;23.63;;
60726;SDS011;46577;49.004;12.120;2022-08-19T03:26:14;28.20;;;23.90;;
60726;SDS011;46577;49.004;12.120;2022-08-19T03:28:41;27.10;;;23.40;;
60726;SDS011;46577;49.004;12.120;2022-08-19T03:31:11;26.60;;;22.53;;
60726;SDS011;46577;49.004;12.120;2022-08-19T03:33:39;23.60;;;21.13;;
60726;SDS011;46577;49.004;12.120;2022-08-19T03:38:34;24.67;;;21.97;;
60726;SDS011;46577;49.004;12.120;2022-08-19T03:41:05;29.13;;;22.87;;
60726;SDS011;46577;49.004;12.120;2022-08-19T03:43:34;23.57;;;21.17;;
60726;SDS011;46577;49.004;12.120;2022-08-19T03:46:02;23.27;;;20.73;;
60726;SDS011;46577;49.004;12.120;2022-08-19T03:48:35;25.33;;;20.87;;
60726;SDS011;46577;49.004;12.120;2022-08-19T03:51:02;25.97;;;20.10;;
60726;SDS011;46577;49.004;12.120;2022-08-19T03:53:28;23.97;;;20.00;;
60726;SDS011;46577;49.004;12.120;2022-08-19T03:55:55;22.93;;;20.47;;
60726;SDS011;46577;49.004;12.120;2022-08-19T03:58:22;23.30;;;20.70;;
60726;SDS011;46577;49.004;12.120;2022-08-19T04:00:48;24.50;;;19.90;;
60726;SDS011;46577;49.004;12.120;2022-08-19T04:03:14;21.37;;;19.20;;
60726;SDS011;46577;49.004;12.120;2022-08-19T04:05:40;23.60;;;20.90;;
60726;SDS011;46577;49.004;12.120;2022-08-19T04:08:06;24.70;;;20.60;;
60726;SDS011;46577;49.004;12.120;2022-08-19T04:10:35;22.47;;;19.80;;
60726;SDS011;46577;49.004;12.120;2022-08-19T04:13:02;23.17;;;19.40;;
60726;SDS011;46577;49.004;12.120;2022-08-19T04:15:29;23.47;;;20.43;;
60726;SDS011;46577;49.004;12.120;2022-08-19T04:17:58;22.20;;;19.53;;
60726;SDS011;46577;49.004;12.120;2022-08-19T04:20:24;24.80;;;19.53;;
60726;SDS011;46577;49.004;12.120;2022-08-19T04:22:50;26.77;;;19.97;;
60726;SDS011;46577;49.004;12.120;2022-08-19T04:25:15;21.47;;;19.10;;
60726;SDS011;46577;49.004;12.120;2022-08-19T04:27:41;21.70;;;19.50;;
60726;SDS011;46577;49.004;12.120;2022-08-19T04:30:11;24.40;;;19.40;;
60726;SDS011;46577;49.004;12.120;2022-08-19T04:32:38;21.03;;;18.60;;
60726;SDS011;46577;49.004;12.120;2022-08-19T04:35:03;26.30;;;19.63;;
60726;SDS011;46577;49.004;12.120;2022-08-19T04:37:29;22.17;;;19.67;;
60726;SDS011;46577;49.004;12.120;2022-08-19T04:39:58;20.57;;;18.40;;
60726;SDS011;46577;49.004;12.120;2022-08-19T04:42:42;19.17;;;17.17;;
60726;SDS011;46577;49.004;12.120;2022-08-19T04:45:12;25.40;;;19.77;;
60726;SDS011;46577;49.004;12.120;2022-08-19T04:47:39;18.90;;;16.90;;
60726;SDS011;46577;49.004;12.120;2022-08-19T04:50:08;26.37;;;18.73;;
60726;SDS011;46577;49.004;12.120;2022-08-19T04:52:35;28.27;;;20.27;;
60726;SDS011;46577;49.004;12.120;2022-08-19T04:55:02;26.77;;;18.87;;
60726;SDS011;46577;49.004;12.120;2022-08-19T04:57:30;24.63;;;19.87;;
60726;SDS011;46577;49.004;12.120;2022-08-19T04:59:56;23.87;;;18.77;;
60726;SDS011;46577;49.004;12.120;2022-08-19T05:02:22;23.90;;;21.33;;
60726;SDS011;46577;49.004;12.120;2022-08-19T05:04:49;26.70;;;19.30;;
60726;SDS011;46577;49.004;12.120;2022-08-19T05:07:15;24.00;;;19.30;;
60726;SDS011;46577;49.004;12.120;2022-08-19T05:09:41;21.17;;;18.93;;
60726;SDS011;46577;49.004;12.120;2022-08-19T05:12:07;26.70;;;21.43;;
60726;SDS011;46577;49.004;12.120;2022-08-19T05:14:33;31.10;;;23.33;;
60726;SDS011;46577;49.004;12.120;2022-08-19T05:17:00;24.47;;;21.90;;
60726;SDS011;46577;49.004;12.120;2022-08-19T05:19:25;26.33;;;21.47;;
60726;SDS011;46577;49.004;12.120;2022-08-19T05:22:10;28.33;;;19.90;;
60726;SDS011;46577;49.004;12.120;2022-08-19T05:24:54;22.03;;;19.73;;
60726;SDS011;46577;49.004;12.120;2022-08-19T05:27:20;21.27;;;17.30;;
60726;SDS011;46577;49.004;12.120;2022-08-19T05:29:45;20.40;;;17.50;;
60726;SDS011;46577;49.004;12.120;2022-08-19T05:32:11;26.30;;;17.93;;
60726;SDS011;46577;49.004;12.120;2022-08-19T05:34:37;21.60;;;16.23;;
60726;SDS011;46577;49.004;12.120;2022-08-19T05:37:03;17.30;;;15.50;;
60726;SDS011;46577;49.004;12.120;2022-08-19T05:39:31;18.93;;;16.47;;
60726;SDS011;46577;49.004;12.120;2022-08-19T05:42:00;19.63;;;16.70;;
60726;SDS011;46577;49.004;12.120;2022-08-19T05:44:29;20.27;;;16.87;;
60726;SDS011;46577;49.004;12.120;2022-08-19T05:46:56;19.33;;;17.27;;
60726;SDS011;46577;49.004;12.120;2022-08-19T05:49:24;19.43;;;17.33;;
60726;SDS011;46577;49.004;12.120;2022-08-19T05:51:52;22.27;;;17.20;;
60726;SDS011;46577;49.004;12.120;2022-08-19T05:54:19;25.63;;;17.93;;
60726;SDS011;46577;49.004;12.120;2022-08-19T05:56:46;19.87;;;17.10;;
60726;SDS011;46577;49.004;12.120;2022-08-19T05:59:13;29.50;;;17.40;;
60726;SDS011;46577;49.004;12.120;2022-08-19T06:01:41;19.53;;;16.87;;
60726;SDS011;46577;49.004;12.120;2022-08-19T06:04:08;20.07;;;16.87;;
60726;SDS011;46577;49.004;12.120;2022-08-19T06:06:34;18.73;;;16.73;;
60726;SDS011;46577;49.004;12.120;2022-08-19T06:09:01;18.70;;;16.80;;
60726;SDS011;46577;49.004;12.120;2022-08-19T06:11:44;21.30;;;16.90;;
60726;SDS011;46577;49.004;12.120;2022-08-19T06:14:14;17.30;;;15.07;;
60726;SDS011;46577;49.004;12.120;2022-08-19T06:16:42;18.57;;;16.57;;
60726;SDS011;46577;49.004;12.120;2022-08-19T06:19:09;18.47;;;16.63;;
60726;SDS011;46577;49.004;12.120;2022-08-19T06:21:42;18.97;;;16.93;;
60726;SDS011;46577;49.004;12.120;2022-08-19T06:24:11;25.33;;;17.70;;
60726;SDS011;46577;49.004;12.120;2022-08-19T06:26:40;19.37;;;17.20;;
60726;SDS011;46577;49.004;12.120;2022-08-19T06:29:09;24.90;;;17.07;;
60726;SDS011;46577;49.004;12.120;2022-08-19T06:31:40;20.23;;;17.87;;
60726;SDS011;46577;49.004;12.120;2022-08-19T06:34:07;23.40;;;18.97;;
60726;SDS011;46577;49.004;12.120;2022-08-19T06:36:35;22.03;;;19.67;;
60726;SDS011;46577;49.004;12.120;2022-08-19T06:39:04;20.57;;;18.27;;
60726;SDS011;46577;49.004;12.120;2022-08-19T06:41:32;23.17;;;20.10;;
60726;SDS011;46577;49.004;12.120;2022-08-19T06:44:00;22.87;;;20.53;;
60726;SDS011;46577;49.004;12.120;2022-08-19T06:46:27;21.10;;;18.87;;
60726;SDS011;46577;49.004;12.120;2022-08-19T06:48:53;24.63;;;21.37;;
60726;SDS011;46577;49.004;12.120;2022-08-19T06:51:20;21.27;;;19.00;;
60726;SDS011;46577;49.004;12.120;2022-08-19T06:53:46;21.63;;;19.43;;
60726;SDS011;46577;49.004;12.120;2022-08-19T06:56:14;22.73;;;19.50;;
60726;SDS011;46577;49.004;12.120;2022-08-19T06:58:41;23.10;;;19.07;;
60726;SDS011;46577;49.004;12.120;2022-08-19T07:01:08;19.53;;;17.20;;
60726;SDS011;46577;49.004;12.120;2022-08-19T07:03:34;23.53;;;17.27;;
60726;SDS011;46577;49.004;12.120;2022-08-19T07:06:04;21.90;;;18.07;;
60726;SDS011;46577;49.004;12.120;2022-08-19T07:08:36;25.00;;;17.57;;
60726;SDS011;46577;49.004;12.120;2022-08-19T07:11:09;21.17;;;17.50;;
60726;SDS011;46577;49.004;12.120;2022-08-19T07:13:36;24.47;;;18.70;;
60726;SDS011;46577;49.004;12.120;2022-08-19T07:16:06;18.97;;;16.97;;
60726;SDS011;46577;49.004;12.120;2022-08-19T07:18:34;20.23;;;16.60;;
60726;SDS011;46577;49.004;12.120;2022-08-19T07:21:04;24.43;;;17.77;;
60726;SDS011;46577;49.004;12.120;2022-08-19T07:23:29;23.20;;;16.50;;
60726;SDS011;46577;49.004;12.120;2022-08-19T07:25:55;24.57;;;15.77;;
60726;SDS011;46577;49.004;12.120;2022-08-19T07:28:22;28.27;;;17.60;;
60726;SDS011;46577;49.004;12.120;2022-08-19T07:30:48;20.20;;;17.73;;
60726;SDS011;46577;49.004;12.120;2022-08-19T07:33:15;20.07;;;17.90;;
60726;SDS011;46577;49.004;12.120;2022-08-19T07:35:42;21.07;;;16.80;;
60726;SDS011;46577;49.004;12.120;2022-08-19T07:38:08;23.53;;;18.83;;
60726;SDS011;46577;49.004;12.120;2022-08-19T07:40:35;23.03;;;19.03;;
60726;SDS011;46577;49.004;12.120;2022-08-19T07:43:01;22.73;;;19.97;;
60726;SDS011;46577;49.004;12.120;2022-08-19T07:45:27;22.23;;;19.60;;
60726;SDS011;46577;49.004;12.120;2022-08-19T07:47:53;21.33;;;19.00;;
60726;SDS011;46577;49.004;12.120;2022-08-19T07:50:20;23.20;;;19.20;;
60726;SDS011;46577;49.004;12.120;2022-08-19T07:52:47;21.80;;;18.47;;
60726;SDS011;46577;49.004;12.120;2022-08-19T07:55:14;20.47;;;17.90;;
60726;SDS011;46577;49.004;12.120;2022-08-19T07:57:43;18.57;;;16.57;;
60726;SDS011;46577;49.004;12.120;2022-08-19T08:00:08;28.17;;;16.67;;
60726;SDS011;46577;49.004;12.120;2022-08-19T08:02:34;19.87;;;17.47;;
60726;SDS011;46577;49.004;12.120;2022-08-19T08:05:00;25.00;;;16.87;;
60726;SDS011;46577;49.004;12.120;2022-08-19T08:07:44;22.10;;;18.63;;
60726;SDS011;46577;49.004;12.120;2022-08-19T08:10:28;19.17;;;17.10;;
60726;SDS011;46577;49.004;12.120;2022-08-19T08:12:54;19.50;;;17.40;;
60726;SDS011;46577;49.004;12.120;2022-08-19T08:15:20;19.33;;;16.90;;
60726;SDS011;46577;49.004;12.120;2022-08-19T08:17:46;20.50;;;17.53;;
60726;SDS011;46577;49.004;12.120;2022-08-19T08:20:13;20.83;;;16.83;;
60726;SDS011;46577;49.004;12.120;2022-08-19T08:22:43;20.40;;;17.70;;
60726;SDS011;46577;49.004;12.120;2022-08-19T08:25:29;22.30;;;17.80;;
60726;SDS011;46577;49.004;12.120;2022-08-19T08:27:56;18.90;;;16.70;;
60726;SDS011;46577;49.004;12.120;2022-08-19T08:30:25;24.23;;;18.40;;
60726;SDS011;46577;49.004;12.120;2022-08-19T08:32:52;21.87;;;18.33;;
60726;SDS011;46577;49.004;12.120;2022-08-19T08:35:19;24.40;;;18.40;;
60726;SDS011;46577;49.004;12.120;2022-08-19T08:37:47;17.60;;;15.17;;
60726;SDS011;46577;49.004;12.120;2022-08-19T08:40:38;18.90;;;15.27;;
60726;SDS011;46577;49.004;12.120;2022-08-19T08:43:18;18.00;;;15.07;;
60726;SDS011;46577;49.004;12.120;2022-08-19T08:45:59;15.83;;;14.20;;
60726;SDS011;46577;49.004;12.120;2022-08-19T08:48:47;14.07;;;12.60;;
60726;SDS011;46577;49.004;12.120;2022-08-19T08:51:20;14.10;;;12.07;;
60726;SDS011;46577;49.004;12.120;2022-08-19T08:53:52;19.73;;;12.90;;
60726;SDS011;46577;49.004;12.120;2022-08-19T08:56:19;14.20;;;12.70;;
60726;SDS011;46577;49.004;12.120;2022-08-19T09:01:19;15.73;;;12.37;;
60726;SDS011;46577;49.004;12.120;2022-08-19T09:03:45;13.70;;;11.23;;
60726;SDS011;46577;49.004;12.120;2022-08-19T09:16:59;18.00;;;12.53;;
60726;SDS011;46577;49.004;12.120;2022-08-19T09:19:28;16.53;;;13.60;;
60726;SDS011;46577;49.004;12.120;2022-08-19T09:21:55;14.47;;;12.90;;
60726;SDS011;46577;49.004;12.120;2022-08-19T09:24:20;19.97;;;13.63;;
60726;SDS011;46577;49.004;12.120;2022-08-19T09:26:46;13.00;;;11.67;;
60726;SDS011;46577;49.004;12.120;2022-08-19T09:29:12;14.50;;;12.97;;
60726;SDS011;46577;49.004;12.120;2022-08-19T09:31:38;14.40;;;12.80;;
60726;SDS011;46577;49.004;12.120;2022-08-19T09:34:04;17.03;;;14.37;;
60726;SDS011;46577;49.004;12.120;2022-08-19T09:36:30;16.23;;;14.57;;
60726;SDS011;46577;49.004;12.120;2022-08-19T09:39:00;17.00;;;14.43;;
60726;SDS011;46577;49.004;12.120;2022-08-19T09:41:30;18.30;;;15.77;;
60726;SDS011;46577;49.004;12.120;2022-08-19T09:43:57;18.60;;;16.60;;
60726;SDS011;46577;49.004;12.120;2022-08-19T09:46:24;18.03;;;16.17;;
60726;SDS011;46577;49.004;12.120;2022-08-19T09:48:51;16.30;;;14.60;;
60726;SDS011;46577;49.004;12.120;2022-08-19T09:51:19;17.67;;;15.80;;
60726;SDS011;46577;49.004;12.120;2022-08-19T09:53:47;18.57;;;15.20;;
60726;SDS011;46577;49.004;12.120;2022-08-19T09:56:19;24.47;;;15.30;;
60726;SDS011;46577;49.004;12.120;2022-08-19T09:58:45;16.23;;;14.53;;
60726;SDS011;46577;49.004;12.120;2022-08-19T10:01:15;18.07;;;14.43;;
60726;SDS011;46577;49.004;12.120;2022-08-19T10:03:46;16.83;;;14.50;;
60726;SDS011;46577;49.004;12.120;2022-08-19T10:06:14;20.17;;;15.10;;
60726;SDS011;46577;49.004;12.120;2022-08-19T10:08:39;17.10;;;14.70;;
60726;SDS011;46577;49.004;12.120;2022-08-19T10:11:05;16.00;;;14.30;;
60726;SDS011;46577;49.004;12.120;2022-08-19T10:13:31;15.57;;;13.53;;
60726;SDS011;46577;49.004;12.120;2022-08-19T10:16:07;15.27;;;13.77;;
60726;SDS011;46577;49.004;12.120;2022-08-19T10:18:34;15.73;;;14.13;;
60726;SDS011;46577;49.004;12.120;2022-08-19T10:21:08;22.23;;;16.53;;
60726;SDS011;46577;49.004;12.120;2022-08-19T10:23:36;18.87;;;12.67;;
60726;SDS011;46577;49.004;12.120;2022-08-19T10:26:04;18.50;;;12.23;;
60726;SDS011;46577;49.004;12.120;2022-08-19T10:28:31;14.20;;;11.40;;
60726;SDS011;46577;49.004;12.120;2022-08-19T10:30:57;13.47;;;11.67;;
60726;SDS011;46577;49.004;12.120;2022-08-19T10:33:27;12.23;;;10.93;;
60726;SDS011;46577;49.004;12.120;2022-08-19T10:36:03;12.43;;;11.13;;
60726;SDS011;46577;49.004;12.120;2022-08-19T10:38:33;12.83;;;10.73;;
60726;SDS011;46577;49.004;12.120;2022-08-19T10:41:14;11.63;;;10.43;;
60726;SDS011;46577;49.004;12.120;2022-08-19T10:43:50;12.00;;;10.90;;
60726;SDS011;46577;49.004;12.120;2022-08-19T10:46:17;12.07;;;10.87;;
60726;SDS011;46577;49.004;12.120;2022-08-19T10:48:43;12.27;;;11.00;;
60726;SDS011;46577;49.004;12.120;2022-08-19T10:51:10;11.97;;;10.50;;
60726;SDS011;46577;49.004;12.120;2022-08-19T10:53:55;13.00;;;11.50;;
60726;SDS011;46577;49.004;12.120;2022-08-19T10:56:21;11.73;;;10.50;;
60726;SDS011;46577;49.004;12.120;2022-08-19T10:59:06;11.40;;;10.30;;
60726;SDS011;46577;49.004;12.120;2022-08-19T11:01:32;12.50;;;11.20;;
60726;SDS011;46577;49.004;12.120;2022-08-19T11:04:02;12.40;;;11.20;;
60726;SDS011;46577;49.004;12.120;2022-08-19T11:06:31;12.60;;;11.37;;
60726;SDS011;46577;49.004;12.120;2022-08-19T11:08:57;12.60;;;11.30;;
60726;SDS011;46577;49.004;12.120;2022-08-19T11:11:24;12.17;;;11.03;;
60726;SDS011;46577;49.004;12.120;2022-08-19T11:13:50;12.87;;;11.50;;
60726;SDS011;46577;49.004;12.120;2022-08-19T11:16:19;13.40;;;12.10;;
60726;SDS011;46577;49.004;12.120;2022-08-19T11:18:48;15.00;;;12.80;;
60726;SDS011;46577;49.004;12.120;2022-08-19T11:21:19;13.67;;;12.27;;
60726;SDS011;46577;49.004;12.120;2022-08-19T11:23:48;17.00;;;13.00;;
60726;SDS011;46577;49.004;12.120;2022-08-19T11:26:16;14.70;;;13.20;;
60726;SDS011;46577;49.004;12.120;2022-08-19T11:28:43;13.57;;;12.17;;
60726;SDS011;46577;49.004;12.120;2022-08-19T11:31:19;21.73;;;15.03;;
60726;SDS011;46577;49.004;12.120;2022-08-19T11:33:46;23.60;;;15.43;;
60726;SDS011;46577;49.004;12.120;2022-08-19T11:36:16;16.97;;;15.27;;
60726;SDS011;46577;49.004;12.120;2022-08-19T11:38:42;21.97;;;17.43;;
60726;SDS011;46577;49.004;12.120;2022-08-19T11:41:08;19.13;;;16.50;;
60726;SDS011;46577;49.004;12.120;2022-08-19T11:43:34;23.17;;;17.80;;
60726;SDS011;46577;49.004;12.120;2022-08-19T11:46:05;29.37;;;20.57;;
60726;SDS011;46577;49.004;12.120;2022-08-19T11:48:32;23.83;;;18.97;;
60726;SDS011;46577;49.004;12.120;2022-08-19T11:50:58;21.30;;;19.00;;
60726;SDS011;46577;49.004;12.120;2022-08-19T11:53:24;25.00;;;17.30;;
60726;SDS011;46577;49.004;12.120;2022-08-19T11:55:50;20.87;;;17.10;;
60726;SDS011;46577;49.004;12.120;2022-08-19T11:58:20;19.63;;;17.27;;
60726;SDS011;46577;49.004;12.120;2022-08-19T12:00:47;20.50;;;17.57;;
60726;SDS011;46577;49.004;12.120;2022-08-19T12:03:13;25.30;;;19.47;;
60726;SDS011;46577;49.004;12.120;2022-08-19T12:05:39;21.57;;;19.00;;
60726;SDS011;46577;49.004;12.120;2022-08-19T12:08:06;22.83;;;19.70;;
60726;SDS011;46577;49.004;12.120;2022-08-19T12:10:32;22.10;;;18.23;;
60726;SDS011;46577;49.004;12.120;2022-08-19T12:12:58;22.30;;;19.37;;
60726;SDS011;46577;49.004;12.120;2022-08-19T12:15:24;21.17;;;18.77;;
60726;SDS011;46577;49.004;12.120;2022-08-19T12:17:54;21.53;;;17.10;;
60726;SDS011;46577;49.004;12.120;2022-08-19T12:20:22;20.63;;;17.33;;
60726;SDS011;46577;49.004;12.120;2022-08-19T12:22:48;21.23;;;17.87;;
60726;SDS011;46577;49.004;12.120;2022-08-19T12:25:15;27.00;;;19.03;;
60726;SDS011;46577;49.004;12.120;2022-08-19T12:27:41;25.77;;;18.33;;
60726;SDS011;46577;49.004;12.120;2022-08-19T12:30:08;20.07;;;17.70;;
60726;SDS011;46577;49.004;12.120;2022-08-19T12:32:35;18.80;;;15.73;;
60726;SDS011;46577;49.004;12.120;2022-08-19T12:35:02;19.90;;;13.53;;
60726;SDS011;46577;49.004;12.120;2022-08-19T12:37:28;18.67;;;15.43;;
60726;SDS011;46577;49.004;12.120;2022-08-19T12:39:56;18.73;;;15.60;;
60726;SDS011;46577;49.004;12.120;2022-08-19T12:42:22;17.43;;;15.10;;
60726;SDS011;46577;49.004;12.120;2022-08-19T12:44:47;17.57;;;14.60;;
60726;SDS011;46577;49.004;12.120;2022-08-19T12:47:13;16.43;;;13.70;;
60726;SDS011;46577;49.004;12.120;2022-08-19T12:49:39;17.07;;;14.00;;
60726;SDS011;46577;49.004;12.120;2022-08-19T12:52:06;14.03;;;12.63;;
60726;SDS011;46577;49.004;12.120;2022-08-19T12:54:33;15.93;;;14.23;;
60726;SDS011;46577;49.004;12.120;2022-08-19T12:57:00;17.17;;;13.23;;
60726;SDS011;46577;49.004;12.120;2022-08-19T12:59:29;19.53;;;14.60;;
60726;SDS011;46577;49.004;12.120;2022-08-19T13:01:54;17.67;;;14.73;;
60726;SDS011;46577;49.004;12.120;2022-08-19T13:04:20;15.77;;;14.07;;
60726;SDS011;46577;49.004;12.120;2022-08-19T13:06:46;17.73;;;15.67;;
60726;SDS011;46577;49.004;12.120;2022-08-19T13:09:11;18.77;;;15.03;;
60726;SDS011;46577;49.004;12.120;2022-08-19T13:11:37;18.87;;;15.97;;
60726;SDS011;46577;49.004;12.120;2022-08-19T13:14:03;17.80;;;15.90;;
60726;SDS011;46577;49.004;12.120;2022-08-19T13:16:30;18.50;;;15.50;;
60726;SDS011;46577;49.004;12.120;2022-08-19T13:18:56;18.60;;;16.70;;
60726;SDS011;46577;49.004;12.120;2022-08-19T13:21:24;17.97;;;15.40;;
60726;SDS011;46577;49.004;12.120;2022-08-19T13:23:52;17.80;;;14.93;;
60726;SDS011;46577;49.004;12.120;2022-08-19T13:26:19;20.50;;;15.17;;
60726;SDS011;46577;49.004;12.120;2022-08-19T13:28:45;17.63;;;15.70;;
60726;SDS011;46577;49.004;12.120;2022-08-19T13:31:31;18.40;;;16.50;;
60726;SDS011;46577;49.004;12.120;2022-08-19T13:34:19;18.87;;;16.17;;
60726;SDS011;46577;49.004;12.120;2022-08-19T13:36:52;16.80;;;14.53;;
60726;SDS011;46577;49.004;12.120;2022-08-19T13:39:18;15.20;;;13.60;;
60726;SDS011;46577;49.004;12.120;2022-08-19T13:41:44;16.10;;;14.40;;
60726;SDS011;46577;49.004;12.120;2022-08-19T13:44:15;16.47;;;14.70;;
60726;SDS011;46577;49.004;12.120;2022-08-19T13:46:43;16.97;;;15.27;;
60726;SDS011;46577;49.004;12.120;2022-08-19T13:49:11;17.30;;;15.60;;
60726;SDS011;46577;49.004;12.120;2022-08-19T13:51:38;16.50;;;14.47;;
60726;SDS011;46577;49.004;12.120;2022-08-19T13:54:05;15.80;;;14.27;;
60726;SDS011;46577;49.004;12.120;2022-08-19T13:56:31;19.10;;;13.90;;
60726;SDS011;46577;49.004;12.120;2022-08-19T13:58:57;14.50;;;13.13;;
60726;SDS011;46577;49.004;12.120;2022-08-19T14:01:22;15.27;;;13.73;;
60726;SDS011;46577;49.004;12.120;2022-08-19T14:03:49;12.60;;;11.30;;
60726;SDS011;46577;49.004;12.120;2022-08-19T14:06:15;17.80;;;13.17;;
60726;SDS011;46577;49.004;12.120;2022-08-19T14:08:41;14.70;;;12.13;;
60726;SDS011;46577;49.004;12.120;2022-08-19T14:11:08;14.70;;;12.57;;
60726;SDS011;46577;49.004;12.120;2022-08-19T14:13:34;13.33;;;12.00;;
60726;SDS011;46577;49.004;12.120;2022-08-19T14:16:00;14.73;;;13.30;;
60726;SDS011;46577;49.004;12.120;2022-08-19T14:18:25;16.23;;;14.47;;
60726;SDS011;46577;49.004;12.120;2022-08-19T14:20:51;14.83;;;13.07;;
60726;SDS011;46577;49.004;12.120;2022-08-19T14:23:17;14.80;;;13.40;;
60726;SDS011;46577;49.004;12.120;2022-08-19T14:25:43;15.00;;;13.13;;
60726;SDS011;46577;49.004;12.120;2022-08-19T14:28:09;14.60;;;13.07;;
60726;SDS011;46577;49.004;12.120;2022-08-19T14:30:35;14.20;;;12.80;;